createdAt,value
2017-08-10T00:00:51.552Z,95825.86
2017-08-10T00:03:19.211Z,95824.30
2017-08-10T00:05:46.860Z,95820.73
2017-08-10T00:08:14.494Z,95828.31
2017-08-10T00:10:42.038Z,95817.51
2017-08-10T00:13:09.621Z,95815.78
2017-08-10T00:15:37.188Z,95818.09
2017-08-10T00:18:04.752Z,95817.56
2017-08-10T00:20:32.368Z,95815.94
2017-08-10T00:22:59.947Z,95812.58
2017-08-10T00:25:27.547Z,95821.82
2017-08-10T00:27:55.107Z,95818.67
2017-08-10T00:30:22.739Z,95821.09
2017-08-10T00:32:50.298Z,95819.66
2017-08-10T00:35:17.910Z,95817.19
2017-08-10T00:37:45.491Z,95821.05
2017-08-10T00:40:13.108Z,95812.73
2017-08-10T00:42:40.702Z,95814.10
2017-08-10T00:45:08.286Z,95812.83
2017-08-10T00:47:35.876Z,95822.05
2017-08-10T00:50:03.457Z,95817.50
2017-08-10T00:52:31.021Z,95819.44
2017-08-10T00:54:58.687Z,95811.78
2017-08-10T00:57:26.972Z,95812.92
2017-08-10T00:59:54.592Z,95811.94
2017-08-10T01:02:22.181Z,95812.70
2017-08-10T01:04:49.757Z,95814.38
2017-08-10T01:07:17.309Z,95812.43
2017-08-10T01:09:44.894Z,95813.48
2017-08-10T01:12:12.429Z,95813.52
2017-08-10T01:14:39.996Z,95816.79
2017-08-10T01:17:07.602Z,95809.20
2017-08-10T01:19:35.197Z,95812.89
2017-08-10T01:22:02.784Z,95817.80
2017-08-10T01:24:30.365Z,95806.69
2017-08-10T01:26:57.918Z,95802.52
2017-08-10T01:29:25.682Z,95801.02
2017-08-10T01:31:53.255Z,95805.55
2017-08-10T01:34:20.841Z,95802.81
2017-08-10T01:36:48.606Z,95804.02
2017-08-10T01:39:16.365Z,95800.81
2017-08-10T01:41:43.975Z,95797.31
2017-08-10T01:44:11.781Z,95806.59
2017-08-10T01:46:39.811Z,95803.14
2017-08-10T01:49:07.385Z,95815.68
2017-08-10T01:51:36.197Z,95807.85
2017-08-10T01:54:03.821Z,95802.72
2017-08-10T01:56:31.430Z,95809.42
2017-08-10T01:58:59.148Z,95813.91
2017-08-10T02:01:26.780Z,95810.62
2017-08-10T02:03:54.471Z,95806.57
2017-08-10T02:06:22.336Z,95809.02
2017-08-10T02:08:49.905Z,95805.07
2017-08-10T02:11:17.480Z,95799.58
2017-08-10T02:13:45.055Z,95801.12
2017-08-10T02:16:12.647Z,95798.34
2017-08-10T02:18:40.216Z,95803.27
2017-08-10T02:21:07.768Z,95803.50
2017-08-10T02:23:35.364Z,95802.38
2017-08-10T02:26:02.930Z,95800.17
2017-08-10T02:28:30.539Z,95801.97
2017-08-10T02:30:58.157Z,95804.58
2017-08-10T02:33:25.750Z,95795.61
2017-08-10T02:35:53.324Z,95796.03
2017-08-10T02:38:20.925Z,95796.09
2017-08-10T02:40:48.456Z,95803.90
2017-08-10T02:43:15.997Z,95796.77
2017-08-10T02:45:43.588Z,95797.08
2017-08-10T02:48:11.179Z,95791.52
2017-08-10T02:50:39.033Z,95792.28
2017-08-10T02:53:06.629Z,95788.81
2017-08-10T02:55:34.203Z,95798.66
2017-08-10T02:58:01.755Z,95786.59
2017-08-10T03:00:29.395Z,95788.89
2017-08-10T03:02:56.985Z,95784.62
2017-08-10T03:05:24.585Z,95785.45
2017-08-10T03:07:52.176Z,95784.47
2017-08-10T03:10:19.780Z,95784.85
2017-08-10T03:12:47.370Z,95784.09
2017-08-10T03:15:14.971Z,95780.55
2017-08-10T03:17:42.521Z,95784.27
2017-08-10T03:20:10.055Z,95794.91
2017-08-10T03:22:37.634Z,95787.39
2017-08-10T03:25:05.165Z,95790.14
2017-08-10T03:27:33.282Z,95792.35
2017-08-10T03:30:00.869Z,95787.59
2017-08-10T03:32:28.426Z,95788.09
2017-08-10T03:34:56.204Z,95787.83
2017-08-10T03:37:23.814Z,95783.88
2017-08-10T03:39:51.423Z,95783.59
2017-08-10T03:42:19.011Z,95783.94
2017-08-10T03:44:46.576Z,95792.27
2017-08-10T03:47:14.149Z,95789.16
2017-08-10T03:49:41.686Z,95788.35
2017-08-10T03:52:09.243Z,95792.88
2017-08-10T03:54:36.842Z,95791.26
2017-08-10T03:57:04.436Z,95786.91
2017-08-10T03:59:32.008Z,95786.13
2017-08-10T04:01:59.595Z,95782.00
2017-08-10T04:04:27.152Z,95782.17
2017-08-10T04:06:54.740Z,95782.09
2017-08-10T04:09:22.320Z,95785.92
2017-08-10T04:11:50.085Z,95784.72
2017-08-10T04:14:17.645Z,95788.25
2017-08-10T04:16:45.221Z,95786.36
2017-08-10T04:19:12.778Z,95786.77
2017-08-10T04:21:40.332Z,95789.53
2017-08-10T04:24:07.919Z,95785.08
2017-08-10T04:26:35.469Z,95790.29
2017-08-10T04:29:03.023Z,95789.14
2017-08-10T04:31:30.599Z,95787.47
2017-08-10T04:33:58.173Z,95787.96
2017-08-10T04:36:25.741Z,95787.00
2017-08-10T04:38:54.080Z,95786.45
2017-08-10T04:41:21.608Z,95783.84
2017-08-10T04:43:49.183Z,95779.73
2017-08-10T04:46:16.744Z,95788.69
2017-08-10T04:48:44.289Z,95786.37
2017-08-10T04:51:11.868Z,95786.34
2017-08-10T04:53:39.460Z,95782.97
2017-08-10T04:56:07.051Z,95784.39
2017-08-10T04:58:34.812Z,95788.75
2017-08-10T05:01:02.412Z,95788.45
2017-08-10T05:03:30.006Z,95792.77
2017-08-10T05:05:57.570Z,95791.53
2017-08-10T05:08:25.144Z,95790.97
2017-08-10T05:10:52.696Z,95790.47
2017-08-10T05:13:20.292Z,95786.06
2017-08-10T05:15:47.890Z,95789.93
2017-08-10T05:18:15.712Z,95784.60
2017-08-10T05:20:43.305Z,95773.74
2017-08-10T05:23:10.900Z,95777.77
2017-08-10T05:25:38.464Z,95775.86
2017-08-10T05:28:06.078Z,95779.47
2017-08-10T05:30:33.737Z,95775.27
2017-08-10T05:33:01.320Z,95779.95
2017-08-10T05:35:28.899Z,95781.88
2017-08-10T05:37:56.501Z,95775.19
2017-08-10T05:40:24.168Z,95777.81
2017-08-10T05:42:51.771Z,95777.08
2017-08-10T05:45:19.380Z,95769.55
2017-08-10T05:47:47.231Z,95769.36
2017-08-10T05:50:14.824Z,95766.13
2017-08-10T05:52:42.421Z,95776.03
2017-08-10T05:55:10.789Z,95771.42
2017-08-10T05:57:38.414Z,95778.94
2017-08-10T06:00:07.150Z,95774.77
2017-08-10T06:02:34.741Z,95768.94
2017-08-10T06:05:02.273Z,95765.36
2017-08-10T06:07:30.106Z,95762.73
2017-08-10T06:09:57.651Z,95765.33
2017-08-10T06:12:25.209Z,95765.67
2017-08-10T06:14:52.797Z,95770.89
2017-08-10T06:17:20.313Z,95767.25
2017-08-10T06:19:47.871Z,95750.66
2017-08-10T06:22:15.432Z,95764.88
2017-08-10T06:24:42.960Z,95766.28
2017-08-10T06:34:30.213Z,95759.70
2017-08-10T06:36:58.113Z,95766.96
2017-08-10T06:39:25.983Z,95764.99
2017-08-10T06:41:53.974Z,95761.13
2017-08-10T06:44:21.480Z,95762.59
2017-08-10T06:46:49.040Z,95765.26
2017-08-10T06:49:17.052Z,95763.28
2017-08-10T06:51:44.627Z,95758.48
2017-08-10T06:54:12.235Z,95760.51
2017-08-10T06:56:39.809Z,95761.80
2017-08-10T06:59:07.342Z,95757.88
2017-08-10T07:01:34.917Z,95761.53
2017-08-10T07:04:02.427Z,95756.17
2017-08-10T07:06:30.167Z,95746.70
2017-08-10T07:08:57.751Z,95746.53
2017-08-10T07:11:25.567Z,95745.39
2017-08-10T07:13:53.226Z,95747.95
2017-08-10T07:16:21.146Z,95746.30
2017-08-10T07:18:48.750Z,95747.67
2017-08-10T07:21:16.265Z,95744.48
2017-08-10T07:23:43.841Z,95745.07
2017-08-10T07:26:11.356Z,95745.88
2017-08-10T07:28:38.900Z,95743.14
2017-08-10T07:31:06.449Z,95736.88
2017-08-10T07:33:33.971Z,95732.69
2017-08-10T07:36:01.528Z,95740.51
2017-08-10T07:38:29.367Z,95731.64
2017-08-10T07:40:56.909Z,95726.29
2017-08-10T07:43:24.686Z,95731.98
2017-08-10T07:45:52.264Z,95733.88
2017-08-10T07:48:20.060Z,95730.20
2017-08-10T07:50:47.615Z,95729.29
2017-08-10T07:53:15.191Z,95723.75
2017-08-10T07:55:42.993Z,95727.29
2017-08-10T07:58:10.559Z,95718.80
2017-08-10T08:00:38.787Z,95719.38
2017-08-10T08:03:06.314Z,95726.22
2017-08-10T08:05:33.891Z,95712.86
2017-08-10T08:08:01.494Z,95718.58
2017-08-10T08:10:29.289Z,95715.21
2017-08-10T08:12:56.839Z,95715.39
2017-08-10T08:15:24.406Z,95713.53
2017-08-10T08:17:51.980Z,95715.86
2017-08-10T08:20:19.596Z,95710.98
2017-08-10T08:22:47.191Z,95701.91
2017-08-10T08:25:14.769Z,95695.36
2017-08-10T08:27:42.524Z,95701.08
2017-08-10T08:30:10.135Z,95695.92
2017-08-10T08:32:38.084Z,95699.64
2017-08-10T08:35:05.695Z,95694.35
2017-08-10T08:37:33.401Z,95696.44
2017-08-10T08:40:01.200Z,95700.87
2017-08-10T08:42:29.002Z,95699.20
2017-08-10T08:44:57.343Z,95694.45
2017-08-10T08:47:25.009Z,95691.03
2017-08-10T08:49:52.655Z,95686.91
2017-08-10T08:52:20.220Z,95693.28
2017-08-10T08:54:48.752Z,95678.72
2017-08-10T08:57:16.351Z,95679.01
2017-08-10T08:59:44.050Z,95673.97
2017-08-10T09:02:11.640Z,95671.77
2017-08-10T09:04:39.419Z,95678.83
2017-08-10T09:07:07.333Z,95680.63
2017-08-10T09:09:34.996Z,95670.02
2017-08-10T09:12:02.816Z,95676.36
2017-08-10T09:14:30.371Z,95687.64
2017-08-10T09:16:57.975Z,95671.03
2017-08-10T09:19:25.632Z,95675.58
2017-08-10T09:21:53.288Z,95683.90
2017-08-10T09:24:20.895Z,95677.19
2017-08-10T09:26:48.535Z,95685.17
2017-08-10T09:29:17.761Z,95673.53
2017-08-10T09:31:45.384Z,95666.88
2017-08-10T09:34:13.438Z,95662.55
2017-08-10T09:36:41.001Z,95673.72
2017-08-10T09:39:09.549Z,95667.54
2017-08-10T09:41:37.090Z,95666.09
2017-08-10T09:44:04.624Z,95675.62
2017-08-10T09:46:32.240Z,95672.98
2017-08-10T09:49:00.128Z,95675.86
2017-08-10T09:51:27.770Z,95670.25
2017-08-10T09:53:57.069Z,95671.16
2017-08-10T09:56:24.622Z,95667.24
2017-08-10T09:58:53.451Z,95662.59
2017-08-10T10:01:21.172Z,95661.18
2017-08-10T10:03:48.767Z,95653.98
2017-08-10T10:06:18.137Z,95656.66
2017-08-10T10:08:45.840Z,95657.94
2017-08-10T10:11:13.393Z,95662.84
2017-08-10T10:13:41.692Z,95658.45
2017-08-10T10:16:09.265Z,95655.88
2017-08-10T10:18:37.809Z,95658.95
2017-08-10T10:21:05.343Z,95644.00
2017-08-10T10:23:33.192Z,95640.31
2017-08-10T10:26:00.703Z,95631.75
2017-08-10T10:28:29.620Z,95628.90
2017-08-10T10:30:57.260Z,95632.47
2017-08-10T10:33:25.502Z,95629.33
2017-08-10T10:35:53.087Z,95640.08
2017-08-10T10:38:30.182Z,95626.39
2017-08-10T10:41:10.485Z,95629.46
2017-08-10T10:43:38.689Z,95624.93
2017-08-10T10:46:06.288Z,95624.61
2017-08-10T10:48:33.818Z,95619.36
2017-08-10T10:51:01.418Z,95621.48
2017-08-10T10:53:28.994Z,95614.94
2017-08-10T10:55:58.151Z,95617.15
2017-08-10T10:58:25.821Z,95611.02
2017-08-10T11:00:53.828Z,95609.61
2017-08-10T11:03:21.391Z,95610.02
2017-08-10T11:05:49.023Z,95615.51
2017-08-10T11:08:16.619Z,95608.20
2017-08-10T11:10:44.155Z,95611.52
2017-08-10T11:13:11.819Z,95615.20
2017-08-10T11:15:40.434Z,95606.70
2017-08-10T11:18:08.206Z,95611.41
2017-08-10T11:20:35.745Z,95608.09
2017-08-10T11:23:03.707Z,95612.90
2017-08-10T11:25:31.889Z,95598.72
2017-08-10T11:27:59.553Z,95599.70
2017-08-10T11:30:27.207Z,95600.20
2017-08-10T11:32:54.956Z,95600.76
2017-08-10T11:35:22.681Z,95595.28
2017-08-10T11:37:50.264Z,95591.28
2017-08-10T11:40:17.885Z,95580.39
2017-08-10T11:42:45.443Z,95583.34
2017-08-10T11:45:13.030Z,95586.20
2017-08-10T11:47:41.730Z,95589.51
2017-08-10T11:50:09.673Z,95582.60
2017-08-10T11:52:37.366Z,95582.30
2017-08-10T11:55:05.024Z,95576.24
2017-08-10T11:57:32.575Z,95576.56
2017-08-10T12:00:00.155Z,95581.11
2017-08-10T12:02:27.731Z,95575.82
2017-08-10T12:04:55.307Z,95572.34
2017-08-10T12:07:22.830Z,95577.37
2017-08-10T12:09:51.331Z,95576.52
2017-08-10T12:12:18.851Z,95575.66
2017-08-10T12:14:47.034Z,95573.74
2017-08-10T12:17:14.931Z,95572.67
2017-08-10T12:19:42.556Z,95577.25
2017-08-10T12:22:10.132Z,95568.42
2017-08-10T12:24:37.706Z,95566.64
2017-08-10T12:27:08.090Z,95566.75
2017-08-10T12:29:36.226Z,95568.56
2017-08-10T12:32:07.097Z,95565.39
2017-08-10T12:34:35.622Z,95563.14
2017-08-10T12:37:03.327Z,95571.45
2017-08-10T12:39:32.612Z,95561.60
2017-08-10T12:42:00.212Z,95563.44
2017-08-10T12:44:27.871Z,95555.09
2017-08-10T12:46:55.499Z,95548.94
2017-08-10T12:49:23.162Z,95544.51
2017-08-10T12:51:51.980Z,95536.26
2017-08-10T12:54:19.700Z,95542.34
2017-08-10T12:56:47.258Z,95532.17
2017-08-10T12:59:14.868Z,95527.84
2017-08-10T13:01:42.451Z,95522.07
2017-08-10T13:04:10.213Z,95534.70
2017-08-10T13:06:37.783Z,95553.71
2017-08-10T13:09:05.509Z,95535.19
2017-08-10T13:11:42.315Z,95547.21
2017-08-10T13:14:12.755Z,95548.55
2017-08-10T13:16:40.476Z,95533.95
2017-08-10T13:19:10.315Z,95523.98
2017-08-10T13:21:38.103Z,95525.13
2017-08-10T13:24:05.668Z,95536.10
2017-08-10T13:26:33.332Z,95530.02
2017-08-10T13:29:04.573Z,95538.16
2017-08-10T13:31:32.205Z,95544.67
2017-08-10T13:36:40.439Z,95526.08
2017-08-10T13:39:08.076Z,95527.48
2017-08-10T13:41:35.643Z,95535.58
2017-08-10T13:44:03.230Z,95527.58
2017-08-10T13:46:30.832Z,95529.19
2017-08-10T13:48:59.094Z,95527.08
2017-08-10T13:51:26.697Z,95528.50
2017-08-10T13:53:54.544Z,95522.86
2017-08-10T13:56:22.172Z,95527.16
2017-08-10T13:58:49.767Z,95527.61
2017-08-10T14:01:17.307Z,95525.08
2017-08-10T14:03:45.142Z,95520.91
2017-08-10T14:06:12.701Z,95514.04
2017-08-10T14:08:41.695Z,95501.38
2017-08-10T14:11:09.269Z,95512.13
2017-08-10T14:13:37.407Z,95516.25
2017-08-10T14:16:05.030Z,95514.02
2017-08-10T14:18:42.587Z,95515.62
2017-08-10T14:21:10.521Z,95508.36
2017-08-10T14:23:38.118Z,95517.33
2017-08-10T14:26:06.486Z,95504.97
2017-08-10T14:28:34.072Z,95508.50
2017-08-10T14:31:01.822Z,95509.44
2017-08-10T14:33:29.462Z,95506.36
2017-08-10T14:35:57.002Z,95506.98
2017-08-10T14:38:24.673Z,95494.72
2017-08-10T14:40:52.486Z,95502.10
2017-08-10T14:43:20.244Z,95502.91
2017-08-10T14:45:47.881Z,95492.27
2017-08-10T14:48:15.441Z,95476.55
2017-08-10T14:50:44.448Z,95490.19
2017-08-10T14:53:12.570Z,95492.39
2017-08-10T14:55:41.782Z,95501.05
2017-08-10T14:58:10.173Z,95488.10
2017-08-10T15:00:37.751Z,95489.08
2017-08-10T15:03:05.341Z,95484.42
2017-08-10T15:05:33.135Z,95477.98
2017-08-10T15:08:01.492Z,95478.38
2017-08-10T15:10:29.448Z,95472.13
2017-08-10T15:12:56.969Z,95477.86
2017-08-10T15:15:24.594Z,95475.28
2017-08-10T15:17:52.117Z,95475.06
2017-08-10T15:20:19.704Z,95470.17
2017-08-10T15:22:47.343Z,95470.67
2017-08-10T15:25:14.869Z,95462.97
2017-08-10T15:27:42.433Z,95463.05
2017-08-10T15:30:10.175Z,95464.41
2017-08-10T15:32:37.901Z,95465.52
2017-08-10T15:35:05.491Z,95462.89
2017-08-10T15:37:33.058Z,95461.73
2017-08-10T15:40:00.614Z,95465.34
2017-08-10T15:42:28.200Z,95461.23
2017-08-10T15:44:56.030Z,95465.44
2017-08-10T15:47:23.579Z,95462.94
2017-08-10T15:49:51.378Z,95463.88
2017-08-10T15:52:18.970Z,95458.63
2017-08-10T15:54:46.727Z,95455.05
2017-08-10T15:57:14.315Z,95456.86
2017-08-10T15:59:41.912Z,95455.11
2017-08-10T16:02:09.882Z,95435.89
2017-08-10T16:04:37.466Z,95455.03
2017-08-10T16:07:05.082Z,95448.00
2017-08-10T16:09:32.749Z,95450.24
2017-08-10T16:12:00.931Z,95446.05
2017-08-10T16:14:28.788Z,95442.27
2017-08-10T16:16:56.342Z,95450.69
2017-08-10T16:19:23.903Z,95442.58
2017-08-10T16:21:51.834Z,95455.58
2017-08-10T16:24:19.412Z,95450.70
2017-08-10T16:26:46.994Z,95451.67
2017-08-10T16:29:14.610Z,95464.13
2017-08-10T16:31:42.254Z,95455.84
2017-08-10T16:34:10.250Z,95461.64
2017-08-10T16:36:37.854Z,95472.70
2017-08-10T16:39:05.523Z,95473.70
2017-08-10T16:41:33.344Z,95478.58
2017-08-10T16:44:00.879Z,95473.87
2017-08-10T16:46:28.442Z,95480.92
2017-08-10T16:48:55.971Z,95476.67
2017-08-10T16:51:23.611Z,95470.88
2017-08-10T16:53:51.195Z,95483.25
2017-08-10T16:56:19.107Z,95480.39
2017-08-10T16:58:46.955Z,95482.55
2017-08-10T17:01:15.370Z,95480.52
2017-08-10T17:03:42.977Z,95482.67
2017-08-10T17:06:10.574Z,95487.82
2017-08-10T17:08:38.283Z,95479.98
2017-08-10T17:11:06.159Z,95483.30
2017-08-10T17:13:33.705Z,95482.05
2017-08-10T17:16:02.181Z,95487.20
2017-08-10T17:18:29.747Z,95487.20
2017-08-10T17:20:57.347Z,95473.58
2017-08-10T17:23:25.015Z,95491.27
2017-08-10T17:25:52.799Z,95475.03
2017-08-10T17:28:20.419Z,95487.27
2017-08-10T17:30:48.111Z,95484.98
2017-08-10T17:33:16.033Z,95482.28
2017-08-10T17:35:48.561Z,95493.59
2017-08-10T17:38:16.217Z,95491.78
2017-08-10T17:40:43.839Z,95497.56
2017-08-10T17:43:11.897Z,95490.47
2017-08-10T17:45:39.523Z,95462.02
2017-08-10T17:48:07.063Z,95492.16
2017-08-10T17:50:35.658Z,95503.79
2017-08-10T17:53:03.692Z,95502.36
2017-08-10T17:55:31.441Z,95499.22
2017-08-10T17:57:59.129Z,95500.42
2017-08-10T18:00:27.131Z,95506.43
2017-08-10T18:02:55.391Z,95504.61
2017-08-10T18:05:23.826Z,95511.56
2017-08-10T18:07:51.511Z,95507.58
2017-08-10T18:10:20.670Z,95508.25
2017-08-10T18:12:51.065Z,95510.39
2017-08-10T18:15:21.430Z,95509.86
2017-08-10T18:17:49.942Z,95511.53
2017-08-10T18:20:18.919Z,95512.13
2017-08-10T18:22:47.091Z,95510.50
2017-08-10T18:25:15.582Z,95511.06
2017-08-10T18:27:43.823Z,95505.41
2017-08-10T18:30:11.596Z,95512.80
2017-08-10T18:32:39.226Z,95519.42
2017-08-10T18:35:07.367Z,95516.95
2017-08-10T18:37:34.980Z,95508.36
2017-08-10T18:40:02.543Z,95499.95
2017-08-10T18:42:30.114Z,95510.36
2017-08-10T18:44:57.794Z,95512.23
2017-08-10T18:47:25.365Z,95516.89
2017-08-10T18:49:52.908Z,95520.84
2017-08-10T18:52:20.507Z,95517.97
2017-08-10T18:54:48.251Z,95526.53
2017-08-10T18:57:16.697Z,95516.12
2017-08-10T18:59:44.541Z,95522.88
2017-08-10T19:02:12.143Z,95523.09
2017-08-10T19:04:39.889Z,95526.55
2017-08-10T19:07:07.498Z,95529.42
2017-08-10T19:09:35.204Z,95525.93
2017-08-10T19:12:02.773Z,95524.47
2017-08-10T19:14:30.580Z,95513.38
2017-08-10T19:16:58.555Z,95517.25
2017-08-10T19:19:26.570Z,95522.20
2017-08-10T19:21:54.540Z,95526.04
2017-08-10T19:24:24.342Z,95531.34
2017-08-10T19:26:51.940Z,95532.94
2017-08-10T19:29:19.633Z,95534.64
2017-08-10T19:31:47.314Z,95536.69
2017-08-10T19:34:14.925Z,95531.49
2017-08-10T19:36:42.504Z,95525.34
2017-08-10T19:39:10.069Z,95526.87
2017-08-10T19:41:39.008Z,95513.47
2017-08-10T19:44:08.519Z,95524.19
2017-08-10T19:46:36.291Z,95521.41
2017-08-10T19:49:05.119Z,95518.73
2017-08-10T19:51:51.197Z,95526.60
2017-08-10T19:54:19.810Z,95526.05
2017-08-10T19:56:47.421Z,95537.48
2017-08-10T19:59:15.838Z,95535.27
2017-08-10T20:01:44.194Z,95534.27
2017-08-10T20:04:12.383Z,95542.44
2017-08-10T20:06:41.690Z,95543.36
2017-08-10T20:09:09.330Z,95546.91
2017-08-10T20:11:37.027Z,95545.52
2017-08-10T20:14:04.665Z,95543.36
2017-08-10T20:16:32.243Z,95541.63
2017-08-10T20:19:00.887Z,95542.12
2017-08-10T20:21:28.462Z,95535.70
2017-08-10T20:23:58.756Z,95547.68
2017-08-10T20:26:28.916Z,95537.67
2017-08-10T20:28:56.517Z,95539.47
2017-08-10T20:31:24.222Z,95543.31
2017-08-10T20:33:53.608Z,95542.34
2017-08-10T20:36:21.533Z,95542.87
2017-08-10T20:38:49.484Z,95547.16
2017-08-10T20:41:17.107Z,95553.52
2017-08-10T20:43:45.029Z,95552.31
2017-08-10T20:46:12.828Z,95549.94
2017-08-10T20:48:42.997Z,95552.80
2017-08-10T20:51:10.659Z,95546.43
2017-08-10T20:53:38.619Z,95546.19
2017-08-10T20:56:06.243Z,95543.41
2017-08-10T20:58:35.168Z,95542.97
2017-08-10T21:01:02.974Z,95551.11
2017-08-10T21:03:30.823Z,95548.45
2017-08-10T21:05:59.078Z,95548.61
2017-08-10T21:08:27.733Z,95552.79
2017-08-10T21:10:55.410Z,95564.11
2017-08-10T21:13:24.347Z,95549.27
2017-08-10T21:15:53.712Z,95568.08
2017-08-10T21:18:21.682Z,95570.36
2017-08-10T21:20:49.895Z,95567.53
2017-08-10T21:23:17.707Z,95565.22
2017-08-10T21:25:45.366Z,95569.94
2017-08-10T21:28:13.309Z,95568.47
2017-08-10T21:30:41.315Z,95562.55
2017-08-10T21:33:09.919Z,95568.13
2017-08-10T21:35:37.535Z,95561.11
2017-08-10T21:38:05.185Z,95560.81
2017-08-10T21:40:33.000Z,95557.39
2017-08-10T21:43:00.818Z,95562.03
2017-08-10T21:45:28.535Z,95560.52
2017-08-10T21:47:56.091Z,95558.19
2017-08-10T21:50:23.681Z,95561.44
2017-08-10T21:52:51.284Z,95557.00
2017-08-10T21:55:18.857Z,95558.97
2017-08-10T21:57:46.697Z,95555.73
2017-08-10T22:00:14.344Z,95558.73
2017-08-10T22:02:41.899Z,95557.71
2017-08-10T22:05:09.649Z,95552.73
2017-08-10T22:07:37.283Z,95551.55
2017-08-10T22:10:04.837Z,95553.35
2017-08-10T22:12:33.568Z,95546.66
2017-08-10T22:15:01.182Z,95548.10
2017-08-10T22:17:28.879Z,95552.23
2017-08-10T22:19:56.510Z,95545.04
2017-08-10T22:22:24.137Z,95547.45
2017-08-10T22:24:51.701Z,95542.33
2017-08-10T22:27:20.406Z,95543.93
2017-08-10T22:29:48.027Z,95543.08
2017-08-10T22:32:15.618Z,95542.85
2017-08-10T22:34:43.168Z,95547.38
2017-08-10T22:37:11.104Z,95542.13
2017-08-10T22:39:38.715Z,95539.83
2017-08-10T22:42:06.545Z,95543.34
2017-08-10T22:44:34.092Z,95548.56
2017-08-10T22:47:01.678Z,95550.42
2017-08-10T22:49:29.272Z,95542.70
2017-08-10T22:51:56.840Z,95549.00
2017-08-10T22:54:24.451Z,95548.30
2017-08-10T22:56:52.396Z,95546.55
2017-08-10T22:59:19.975Z,95545.52
2017-08-10T23:01:47.598Z,95544.78
2017-08-10T23:04:15.480Z,95535.13
2017-08-10T23:06:43.064Z,95535.30
2017-08-10T23:09:10.719Z,95529.56
2017-08-10T23:11:38.774Z,95529.39
2017-08-10T23:14:06.803Z,95531.64
2017-08-10T23:16:34.442Z,95527.78
2017-08-10T23:19:02.057Z,95525.63
2017-08-10T23:21:29.699Z,95525.20
2017-08-10T23:23:57.314Z,95528.44
2017-08-10T23:26:24.939Z,95517.86
2017-08-10T23:28:52.621Z,95526.36
2017-08-10T23:31:20.272Z,95526.92
2017-08-10T23:33:47.873Z,95522.00
2017-08-10T23:36:15.443Z,95520.95
2017-08-10T23:38:43.258Z,95528.86
2017-08-10T23:41:10.918Z,95520.28
2017-08-10T23:43:38.536Z,95518.22
2017-08-10T23:46:09.148Z,95521.50
2017-08-10T23:48:36.772Z,95530.27
2017-08-10T23:51:04.459Z,95532.05
2017-08-10T23:53:32.138Z,95529.98
2017-08-10T23:56:00.656Z,95525.67
2017-08-10T23:58:28.303Z,95516.48
